Date,TemperatureHighF,TemperatureAvgF,TemperatureLowF,DewpointHighF,DewpointAvgF,DewpointLowF,HumidityHigh,HumidityAvg,HumidityLow,PressureMaxIn,PressureMinIn,WindSpeedMaxMPH,WindSpeedAvgMPH,GustSpeedMaxMPH,PrecipitationSumIn
2014-1-9,46,33,25,40,26,19,91,76,40,30.52,30.37,2,0,4,0.01
2014-1-10,47,43,40,47,42,39,99,97,92,30.36,29.98,0,0,3,0.22
2014-1-11,62,54,45,58,45,-100,100,78,35,29.97,29.69,6,2,15,0.88
2014-1-12,56,44,32,38,34,30,96,72,43,30.18,29.99,1,0,7,0.01
2014-1-13,50,46,41,46,39,33,95,77,62,30.13,29.88,2,0,8,0.19
2014-1-14,55,48,42,47,39,32,98,74,43,30.01,29.83,2,0,7,0.12
2014-1-15,44,39,25,37,27,16,80,63,33,30.11,29.97,7,1,13,0.02
2014-2-3,47,41,37,46,38,36,98,89,79,30.22,29.86,8,1,16,1.66
2014-2-4,50,43,39,48,40,35,97,89,75,30.24,29.89,2,0,6,0.13
2014-2-5,49,42,29,48,37,21,98,84,71,30.34,29.82,9,3,14,0.15
2014-2-6,36,30,27,24,22,20,84,71,59,30.41,30.31,3,0,8,0.01
2014-2-7,41,31,22,28,23,19,90,73,52,30.41,30.27,2,0,5,0.00
2014-2-8,48,39,34,35,30,25,87,72,58,30.28,30.15,2,0,6,0.00
2014-2-9,50,42,36,39,36,33,90,79,64,30.19,30.07,1,0,5,0.00
2014-2-10,42,37,31,37,31,24,91,79,62,30.24,30.12,3,0,5,0.02
2014-2-11,41,33,30,26,22,20,80,65,51,30.32,30.21,1,0,3,0.01
2014-2-12,33,32,31,32,29,22,97,89,64,30.25,29.85,1,0,2,0.10
2014-2-13,44,36,31,34,29,22,98,79,42,29.88,29.77,4,0,8,0.84
2014-2-14,49,40,28,40,32,25,96,76,58,29.91,29.71,2,0,8,0.19
2014-2-15,41,34,27,40,22,-100,97,67,46,30.15,29.69,9,2,16,0.14
2014-4-2,82,68,54,53,40,29,56,38,19,30.16,30.04,4,1,10,0.00
2014-4-3,79,70,63,61,57,51,79,65,50,30.09,29.93,5,1,11,0.00
2014-4-4,69,64,58,63,58,50,96,83,62,30.01,29.82,4,1,11,0.36
2014-4-5,61,51,41,45,38,34,85,63,37,30.15,30.03,4,1,7,0.01
2014-4-6,66,52,42,51,38,-100,96,65,40,30.11,29.94,2,0,5,0.15
2014-4-7,69,57,50,60,53,46,98,88,67,29.95,29.61,4,1,16,1.46
2014-4-8,62,53,44,47,42,38,92,66,43,29.87,29.75,5,1,13,0.11
2014-4-9,50,49,49,47,44,36,94,86,59,30.17,29.88,0,0,0,0.11
2014-4-10,73,55,45,42,38,35,72,55,31,30.19,30.12,1,0,4,0.00
2014-4-11,76,63,51,54,45,39,71,53,39,30.24,30.11,2,0,7,0.00
2014-4-12,81,65,49,60,53,48,100,71,38,30.26,30.08,4,1,10,0.17
2014-4-13,82,69,60,58,51,-100,77,57,39,30.15,29.97,4,1,10,0.00
2014-4-14,72,66,61,61,58,53,95,76,53,30.01,29.80,2,0,7,0.15
2014-4-15,64,46,35,61,41,28,96,82,55,30.18,29.72,5,1,12,0.21
2014-4-16,63,45,31,37,29,24,85,58,31,30.34,30.20,2,0,7,0.01
2014-4-17,64,50,39,44,36,30,80,59,47,30.35,30.30,1,0,4,0.00
2014-4-18,62,55,49,47,44,40,86,65,48,30.36,30.19,1,0,3,0.00
2014-4-19,65,57,51,50,46,42,87,69,46,30.21,30.14,0,0,3,0.01
2014-4-20,77,58,42,52,42,-100,98,65,28,30.28,30.14,2,0,7,0.01
2014-4-21,78,64,46,51,46,42,90,56,33,30.21,29.99,2,0,6,0.00
2014-5-13,84,76,70,67,65,64,84,68,55,30.14,30.09,0,0,1,0.00
2014-5-14,83,72,65,68,64,60,97,76,54,30.14,29.96,2,0,7,1.03
2014-5-15,65,58,49,64,53,46,98,84,65,30.14,29.91,3,1,8,0.61
2014-5-16,64,53,44,51,44,35,98,75,34,30.16,30.06,3,0,9,0.15
2014-5-17,58,51,44,54,48,42,97,91,77,30.27,30.15,1,0,3,0.28
2014-5-18,64,55,53,57,51,-100,98,91,75,30.27,30.20,1,0,4,0.15
2014-5-23,86,74,64,71,66,61,96,78,50,30.14,30.06,2,0,6,0.00
2014-5-24,80,71,62,63,60,54,81,68,50,30.20,30.11,0,0,3,0.00
2014-5-25,81,68,59,67,60,-100,98,79,58,30.20,30.13,1,0,5,0.00
2014-5-26,85,73,62,70,66,61,98,79,51,30.25,30.14,1,0,5,0.01
2014-5-27,82,73,68,72,68,65,95,83,63,30.19,30.06,1,0,4,0.05
2014-5-28,86,74,66,70,67,63,98,81,46,30.11,30.01,1,0,6,0.05
2014-5-29,82,73,64,71,66,63,97,81,63,30.11,30.03,1,0,3,0.00
2014-5-30,84,70,65,70,66,64,98,88,59,30.12,30.08,0,0,2,0.03
2014-5-31,87,74,66,72,68,65,98,83,56,30.17,30.08,0,0,5,0.03
2014-6-1,79,70,68,68,60,-100,95,77,62,30.25,30.15,1,0,5,0.00
2014-6-2,82,71,61,63,60,58,91,69,50,30.27,30.14,2,0,4,0.00
2014-6-3,83,72,62,70,64,58,91,77,61,30.19,30.04,0,0,3,0.00
2014-6-4,87,75,66,73,69,65,98,83,59,30.05,29.88,1,0,6,0.01
2014-6-5,83,75,69,72,68,63,98,81,61,29.96,29.85,2,0,4,0.43
2014-6-6,82,74,67,73,69,66,99,87,64,30.01,29.91,1,0,4,0.31
2014-6-7,86,75,65,72,68,64,97,80,54,30.04,29.94,1,0,4,0.01
2014-6-8,83,71,65,71,62,-100,98,78,56,30.01,29.90,2,0,7,0.13
2014-6-9,79,70,62,69,64,58,96,83,68,30.00,29.92,1,0,3,0.06
2014-6-10,85,70,64,73,67,63,99,91,66,30.02,29.91,3,0,12,0.99
2014-6-11,79,71,65,71,68,64,99,90,75,29.94,29.84,1,0,3,0.34
2014-6-12,80,71,67,70,68,66,98,90,65,29.96,29.88,0,0,3,0.03
2014-6-13,77,68,65,71,66,64,98,94,79,30.01,29.91,0,0,3,0.18
2014-6-14,83,71,63,72,66,63,99,86,62,30.09,30.01,1,0,4,0.05
2014-6-15,89,75,63,72,62,-100,98,74,48,30.19,30.07,2,0,5,0.00
2014-6-16,89,76,69,71,69,66,97,80,53,30.25,30.14,1,0,3,0.00
2014-6-17,88,78,67,74,70,66,97,77,56,30.25,30.13,0,0,2,0.00
2014-6-18,90,78,70,75,71,68,97,80,56,30.21,30.13,0,0,2,0.00
2014-6-19,90,75,68,78,70,67,98,85,65,30.22,30.14,1,0,3,0.01
2014-6-20,88,72,66,72,68,65,98,89,60,30.17,30.04,0,0,10,0.06
2014-6-21,83,72,67,74,70,66,98,92,74,30.06,29.96,1,0,5,0.38
2014-6-22,86,70,66,73,61,-100,100,83,63,30.03,29.91,0,0,2,0.05
2014-6-23,88,76,67,72,69,66,98,81,57,30.07,29.96,1,0,3,0.00
2014-6-24,82,72,68,72,69,67,98,92,73,30.11,30.02,0,0,4,0.50
2014-6-25,86,77,69,72,70,66,97,78,52,30.12,30.03,1,0,5,0.45
2014-6-26,81,73,68,72,69,67,98,88,67,30.11,30.00,0,0,1,0.00
2014-6-27,84,74,70,73,71,69,98,91,67,30.15,30.07,0,0,1,1.44
2014-6-28,81,74,69,74,71,69,99,92,77,30.25,30.15,0,0,1,1.19
2014-6-29,78,68,69,74,60,-100,98,88,84,30.25,30.14,0,0,3,0.37
2014-6-30,75,70,67,73,69,67,99,96,87,30.17,30.03,0,0,2,1.60
2014-7-1,89,81,70,77,74,69,97,78,59,30.06,29.95,1,0,4,0.04
2014-7-2,90,79,73,75,72,69,97,81,50,30.04,29.96,1,0,4,0.00
2014-7-3,82,74,70,71,66,59,97,77,51,30.12,30.02,1,0,6,0.00
2014-7-4,81,71,61,63,60,58,94,71,48,30.23,30.14,2,0,5,0.00
2014-7-9,74,74,73,69,69,69,86,86,85,30.06,30.05,0,0,0,0.00
2014-7-10,84,76,70,70,69,68,92,80,59,30.12,30.07,0,0,4,0.00
2014-7-11,88,76,66,71,68,65,98,78,51,30.23,30.13,1,0,3,0.00
2014-7-12,88,77,69,74,70,68,98,82,60,30.25,30.17,1,0,4,0.00
2014-7-13,83,70,71,73,66,69,97,79,69,30.19,30.07,0,0,3,0.00
2014-7-14,90,77,71,75,71,67,95,84,56,30.09,29.93,0,0,4,0.10
2014-7-15,82,74,69,71,68,59,98,82,60,29.99,29.88,2,0,5,0.11
2014-7-16,80,68,59,59,56,54,87,70,45,30.03,29.96,2,0,4,0.01
2014-7-17,82,67,57,63,58,55,94,75,47,30.10,30.03,1,0,4,0.00
2014-7-18,70,67,65,69,65,62,98,95,87,30.17,30.08,0,0,1,0.28
2014-7-19,76,70,65,72,68,65,100,96,83,30.13,30.04,1,0,3,1.20
2014-7-20,81,72,68,72,69,67,98,90,74,30.12,30.04,0,0,3,0.01
2014-7-21,83,75,72,75,72,70,98,90,69,30.14,30.05,1,0,3,0.15
2014-7-22,85,75,70,75,72,69,98,89,69,30.19,30.11,0,0,4,0.01
2014-7-23,87,77,70,74,72,69,98,85,60,30.14,30.02,1,0,4,0.01
2014-7-24,84,76,72,73,72,71,98,86,68,30.04,29.97,1,0,7,0.00
2014-7-25,84,72,63,68,65,62,98,80,50,30.13,30.03,1,0,3,0.00
2014-7-26,87,71,63,71,66,62,98,86,56,30.11,30.04,1,0,4,0.00
2014-7-27,89,72,71,73,65,67,89,73,58,30.07,29.92,0,0,8,0.00
2014-7-28,82,74,70,72,68,62,99,82,53,30.02,29.94,3,0,8,0.23
2014-7-29,77,67,62,63,60,55,97,80,48,30.09,30.01,3,0,6,0.00
2014-7-30,80,66,55,62,58,54,98,76,52,30.14,30.10,2,0,4,0.00
2014-7-31,77,59,62,68,54,61,96,83,70,30.15,30.09,0,0,3,0.00
2014-8-1,81,72,64,69,67,63,99,86,62,30.14,30.05,0,0,3,0.01
2014-8-2,77,73,67,76,70,66,98,93,80,30.15,30.07,0,0,1,0.29
2014-8-3,83,77,69,70,67,64,98,72,54,30.15,30.07,0,0,3,0.23
2014-8-4,86,73,62,66,62,58,98,72,40,30.16,30.06,1,0,6,0.00
2014-8-5,87,71,60,66,61,58,98,76,41,30.14,30.07,1,0,5,0.00
2014-8-6,89,76,64,70,66,61,91,72,49,30.11,30.01,1,0,4,0.00
2014-8-7,91,81,70,74,70,67,97,70,47,30.08,29.99,0,0,3,0.00
2014-8-8,81,74,70,76,72,68,98,93,84,30.11,30.00,0,0,1,0.55
2014-8-9,84,74,68,75,71,68,99,92,69,30.11,29.98,0,0,2,0.13
2014-8-10,85,73,72,76,70,71,98,88,68,30.09,30.00,1,0,8,0.38
2014-8-11,84,76,70,76,72,69,98,89,74,30.06,29.93,1,0,4,0.39
2014-8-12,85,76,69,74,71,65,100,85,59,29.99,29.89,0,0,3,1.12
2014-8-13,78,68,60,64,62,59,98,82,60,30.10,29.99,1,0,5,0.09
2014-8-14,80,68,60,65,62,59,97,83,59,30.08,30.04,0,0,2,0.00
2014-8-15,82,67,60,66,63,59,99,87,52,30.11,30.03,0,0,0,0.00
2014-8-16,83,71,63,69,66,63,99,86,59,30.11,30.03,1,0,3,0.00
2014-8-17,84,72,67,72,68,64,99,89,66,30.09,29.99,0,0,2,0.14
2014-8-18,84,72,69,75,70,68,99,94,73,30.02,29.90,1,0,6,0.75
2014-8-19,83,75,70,75,72,69,99,90,70,29.98,29.90,2,0,4,0.03
2014-8-20,92,80,71,77,73,70,98,82,57,30.10,29.97,1,0,10,0.04
2014-8-21,83,79,76,76,74,73,91,86,79,30.14,30.11,0,0,0,0.00
2014-8-22,90,78,72,75,73,71,99,86,57,30.16,30.04,1,0,4,0.00
2014-8-23,89,80,71,77,74,71,99,83,64,30.07,29.96,0,0,4,0.00
2014-8-24,87,77,72,76,74,71,99,92,68,30.06,29.95,1,0,4,0.38
2014-8-25,84,76,69,73,71,67,99,85,66,30.14,30.04,0,0,0,0.33
2014-8-26,83,75,67,71,67,62,93,78,62,30.22,30.09,0,0,0,0.01
2014-8-27,86,74,64,72,68,64,99,81,56,30.16,30.06,0,0,1,0.00
2014-8-28,69,68,67,67,66,66,98,97,94,30.09,30.07,0,0,0,0.00
2014-8-29,91,78,67,72,67,63,98,75,43,30.12,30.05,0,0,2,0.00
2014-8-30,88,75,67,75,69,64,98,83,61,30.18,30.07,2,0,8,0.64